createdAt,value
2023-04-01T00:00:41.917Z,4.02
2023-04-01T00:00:59.731Z,6.92
2023-04-01T00:01:33.321Z,5.47
2023-04-01T00:02:05.328Z,1.44
2023-04-01T00:02:38.218Z,6.11
2023-04-01T00:03:09.146Z,5.47
2023-04-01T00:03:41.237Z,6.11
2023-04-01T00:04:13.266Z,4.02
2023-04-01T00:04:38.548Z,4.66
2023-04-01T00:04:58.532Z,4.98
2023-04-01T00:05:33.764Z,4.98
2023-04-01T00:06:05.638Z,6.92
2023-04-01T00:06:35.779Z,5.47
2023-04-01T00:07:09.308Z,5.47
2023-04-01T00:07:41.327Z,8.20
2023-04-01T00:08:13.129Z,8.20
2023-04-01T00:08:35.999Z,7.88
2023-04-01T00:08:58.316Z,4.02
2023-04-01T00:09:33.198Z,4.66
2023-04-01T00:10:05.127Z,5.47
2023-04-01T00:10:39.015Z,6.11
2023-04-01T00:11:09.355Z,7.88
2023-04-01T00:11:41.047Z,6.11
2023-04-01T00:12:13.265Z,4.34
2023-04-01T00:12:36.340Z,2.89
2023-04-01T00:12:58.553Z,4.66
2023-04-01T00:13:33.446Z,6.11
2023-04-01T00:14:05.263Z,8.69
2023-04-01T00:14:40.852Z,8.20
2023-04-01T00:15:09.564Z,6.92
2023-04-01T00:15:41.223Z,8.69
2023-04-01T00:16:20.465Z,5.79
2023-04-01T00:16:36.091Z,5.47
2023-04-01T00:16:58.280Z,4.98
2023-04-01T00:17:34.734Z,6.43
2023-04-01T00:18:05.137Z,8.69
2023-04-01T00:18:37.179Z,10.13
2023-04-01T00:19:09.366Z,8.69
2023-04-01T00:19:41.148Z,8.20
2023-04-01T00:20:13.054Z,8.20
2023-04-01T00:20:36.050Z,5.47
2023-04-01T00:20:58.062Z,8.20
2023-04-01T00:21:33.476Z,9.33
2023-04-01T00:22:05.176Z,4.02
2023-04-01T00:22:37.060Z,8.69
2023-04-01T00:23:09.340Z,7.24
2023-04-01T00:23:41.764Z,7.24
2023-04-01T00:24:13.261Z,6.92
2023-04-01T00:24:36.343Z,7.88
2023-04-01T00:24:58.764Z,7.56
2023-04-01T00:25:33.444Z,2.57
2023-04-01T00:26:05.264Z,7.56
2023-04-01T00:26:37.103Z,7.88
2023-04-01T00:27:09.204Z,4.02
2023-04-01T00:27:42.412Z,7.88
2023-04-01T00:28:13.135Z,6.11
2023-04-01T00:28:35.876Z,4.66
2023-04-01T00:28:58.290Z,6.11
2023-04-01T00:29:33.265Z,4.02
2023-04-01T00:30:05.665Z,7.88
2023-04-01T00:30:37.426Z,7.88
2023-04-01T00:31:09.278Z,6.11
2023-04-01T00:31:42.620Z,4.66
2023-04-01T00:32:13.011Z,6.11
2023-04-01T00:32:36.848Z,7.24
2023-04-01T00:32:59.045Z,8.20
2023-04-01T00:33:33.068Z,6.43
2023-04-01T00:34:05.063Z,7.88
2023-04-01T00:34:37.065Z,8.20
2023-04-01T00:35:09.396Z,5.79
2023-04-01T00:35:43.215Z,6.43
2023-04-01T00:36:13.459Z,6.43
2023-04-01T00:36:36.520Z,9.33
2023-04-01T00:36:58.665Z,5.47
2023-04-01T00:37:33.565Z,6.92
2023-04-01T00:38:05.343Z,1.12
2023-04-01T00:38:37.111Z,6.43
2023-04-01T00:39:09.134Z,6.92
2023-04-01T00:39:44.819Z,6.11
2023-04-01T00:40:16.044Z,5.47
2023-04-01T00:40:36.215Z,7.24
2023-04-01T00:40:58.625Z,6.92
2023-04-01T00:41:33.198Z,4.66
2023-04-01T00:42:05.770Z,9.65
2023-04-01T00:42:37.183Z,6.11
2023-04-01T00:43:09.490Z,8.69
2023-04-01T00:43:41.228Z,7.24
2023-04-01T00:44:13.167Z,7.88
2023-04-01T00:44:35.912Z,7.88
2023-04-01T00:44:58.263Z,6.43
2023-04-01T00:45:33.696Z,7.24
2023-04-01T00:46:05.067Z,6.11
2023-04-01T00:46:37.977Z,6.11
2023-04-01T00:47:09.614Z,6.11
2023-04-01T00:47:41.199Z,6.43
2023-04-01T00:48:13.322Z,7.88
2023-04-01T00:48:36.479Z,7.56
2023-04-01T00:48:58.751Z,4.02
2023-04-01T00:49:33.492Z,5.47
2023-04-01T00:50:05.017Z,4.98
2023-04-01T00:50:37.134Z,5.79
2023-04-01T00:51:09.536Z,5.47
2023-04-01T00:51:41.216Z,6.11
2023-04-01T00:52:13.007Z,5.47
2023-04-01T00:52:35.671Z,6.43
2023-04-01T00:52:58.237Z,4.66
2023-04-01T00:53:33.346Z,9.33
2023-04-01T00:54:05.244Z,6.43
2023-04-01T00:54:37.310Z,7.88
2023-04-01T00:55:09.216Z,5.79
2023-04-01T00:55:41.221Z,6.11
2023-04-01T00:56:13.175Z,9.33
2023-04-01T00:56:36.487Z,6.43
2023-04-01T00:56:58.765Z,8.69
2023-04-01T00:57:33.338Z,7.88
2023-04-01T00:58:05.098Z,7.88
2023-04-01T00:58:37.158Z,6.11
2023-04-01T00:59:09.357Z,3.54
2023-04-01T00:59:41.259Z,6.11
2023-04-01T01:00:18.777Z,7.56
2023-04-01T01:00:35.855Z,6.43
2023-04-01T01:00:58.204Z,7.24
2023-04-01T01:01:33.164Z,4.66
2023-04-01T01:02:26.125Z,4.66
2023-04-01T01:02:48.479Z,6.11
2023-04-01T01:03:25.398Z,5.79
2023-04-01T01:03:48.651Z,7.24
2023-04-01T01:04:10.905Z,7.24
2023-04-01T01:04:33.844Z,6.11
2023-04-01T01:04:56.099Z,8.20
2023-04-01T01:05:34.648Z,6.11
2023-04-01T01:06:05.126Z,6.43
2023-04-01T01:06:35.680Z,7.88
2023-04-01T01:07:09.077Z,4.02
2023-04-01T01:07:41.114Z,6.92
2023-04-01T01:08:13.229Z,6.11
2023-04-01T01:08:36.098Z,6.11
2023-04-01T01:08:58.360Z,6.43
2023-04-01T01:09:33.277Z,7.24
2023-04-01T01:10:05.074Z,4.66
2023-04-01T01:10:37.037Z,6.11
2023-04-01T01:11:09.009Z,4.02
2023-04-01T01:11:43.716Z,5.79
2023-04-01T01:12:13.140Z,5.79
2023-04-01T01:12:36.397Z,4.66
2023-04-01T01:12:58.390Z,4.98
2023-04-01T01:13:33.033Z,7.88
2023-04-01T01:14:05.202Z,4.66
2023-04-01T01:14:37.418Z,6.92
2023-04-01T01:15:09.534Z,7.24
2023-04-01T01:15:41.288Z,7.88
2023-04-01T01:16:13.217Z,5.47
2023-04-01T01:16:36.016Z,5.79
2023-04-01T01:16:58.378Z,3.21
2023-04-01T01:17:33.190Z,5.79
2023-04-01T01:18:05.318Z,8.69
2023-04-01T01:18:37.189Z,6.43
2023-04-01T01:19:09.195Z,7.56
2023-04-01T01:19:41.251Z,4.02
2023-04-01T01:20:24.847Z,7.56
2023-04-01T01:20:36.209Z,7.88
2023-04-01T01:20:58.456Z,7.88
2023-04-01T01:21:33.147Z,6.43
2023-04-01T01:22:05.467Z,6.43
2023-04-01T01:22:37.416Z,8.69
2023-04-01T01:23:09.435Z,5.47
2023-04-01T01:23:41.381Z,4.98
2023-04-01T01:24:13.234Z,4.98
2023-04-01T01:24:35.949Z,6.43
2023-04-01T01:24:58.697Z,4.02
2023-04-01T01:25:33.407Z,7.56
2023-04-01T01:26:05.176Z,5.47
2023-04-01T01:26:37.121Z,5.47
2023-04-01T01:27:09.434Z,6.11
2023-04-01T01:27:41.232Z,6.92
2023-04-01T01:28:13.171Z,6.92
2023-04-01T01:28:35.935Z,4.02
2023-04-01T01:28:58.226Z,6.11
2023-04-01T01:29:33.326Z,7.24
2023-04-01T01:30:06.559Z,8.69
2023-04-01T01:30:37.115Z,7.56
2023-04-01T01:31:09.080Z,6.11
2023-04-01T01:31:41.117Z,7.24
2023-04-01T01:32:13.167Z,5.47
2023-04-01T01:32:36.616Z,7.24
2023-04-01T01:32:59.353Z,7.24
2023-04-01T01:33:33.125Z,6.43
2023-04-01T01:34:05.106Z,4.98
2023-04-01T01:34:37.177Z,6.43
2023-04-01T01:35:09.083Z,5.79
2023-04-01T01:35:41.089Z,6.92
2023-04-01T01:36:13.076Z,6.11
2023-04-01T01:36:36.030Z,3.54
2023-04-01T01:36:58.161Z,6.11
2023-04-01T01:37:33.110Z,6.11
2023-04-01T01:38:05.272Z,3.54
2023-04-01T01:38:37.170Z,2.89
2023-04-01T01:39:09.203Z,6.43
2023-04-01T01:39:41.110Z,6.43
2023-04-01T01:40:13.230Z,3.54
2023-04-01T01:40:36.152Z,6.43
2023-04-01T01:40:58.598Z,6.11
2023-04-01T01:41:33.114Z,8.69
2023-04-01T01:42:05.154Z,6.43
2023-04-01T01:42:37.146Z,7.88
2023-04-01T01:43:09.120Z,8.69
2023-04-01T01:43:41.072Z,5.79
2023-04-01T01:44:13.190Z,4.98
2023-04-01T01:44:35.982Z,1.44
2023-04-01T01:44:58.375Z,4.66
2023-04-01T01:45:33.379Z,4.66
2023-04-01T01:46:05.076Z,5.47
2023-04-01T01:46:37.165Z,7.24
2023-04-01T01:47:08.982Z,3.54
2023-04-01T01:47:41.006Z,7.24
2023-04-01T01:48:13.419Z,8.69
2023-04-01T01:48:36.357Z,4.02
2023-04-01T01:48:58.793Z,8.20
2023-04-01T01:49:33.250Z,6.43
2023-04-01T01:50:06.525Z,6.43
2023-04-01T01:50:37.127Z,6.11
2023-04-01T01:51:09.356Z,9.33
2023-04-01T01:51:41.181Z,7.88
2023-04-01T01:52:13.358Z,5.79
2023-04-01T01:52:35.996Z,7.88
2023-04-01T01:52:58.194Z,8.20
2023-04-01T01:53:33.027Z,2.89
2023-04-01T01:54:04.998Z,9.01
2023-04-01T01:54:37.086Z,7.88
2023-04-01T01:55:09.058Z,8.69
2023-04-01T01:55:41.162Z,8.69
2023-04-01T01:56:13.025Z,6.92
2023-04-01T01:56:36.547Z,1.44
2023-04-01T01:56:58.868Z,6.11
2023-04-01T01:57:33.062Z,9.65
2023-04-01T01:58:05.161Z,7.24
2023-04-01T01:58:39.620Z,9.33
2023-04-01T01:59:09.274Z,8.69
2023-04-01T01:59:41.108Z,4.98
2023-04-01T02:00:58.486Z,6.92
2023-04-01T02:01:40.575Z,10.78
2023-04-01T02:02:37.240Z,6.43
2023-04-01T02:03:17.614Z,6.43
2023-04-01T02:03:41.286Z,4.98
2023-04-01T02:04:13.181Z,6.11
2023-04-01T02:04:36.971Z,9.65
2023-04-01T02:04:59.360Z,6.92
2023-04-01T02:05:33.316Z,8.69
2023-04-01T02:06:05.060Z,6.92
2023-04-01T02:06:35.881Z,5.47
2023-04-01T02:07:09.099Z,6.43
2023-04-01T02:07:41.457Z,10.13
2023-04-01T02:08:13.076Z,6.43
2023-04-01T02:08:35.721Z,7.56
2023-04-01T02:08:58.144Z,7.24
2023-04-01T02:09:33.291Z,5.79
2023-04-01T02:10:05.255Z,6.11
2023-04-01T02:10:37.121Z,9.33
2023-04-01T02:11:09.075Z,5.47
2023-04-01T02:11:41.003Z,6.43
2023-04-01T02:12:13.086Z,7.24
2023-04-01T02:12:36.163Z,6.43
2023-04-01T02:12:58.873Z,8.69
2023-04-01T02:13:33.152Z,5.79
2023-04-01T02:14:05.340Z,5.47
2023-04-01T02:14:37.097Z,4.98
2023-04-01T02:15:11.672Z,3.54
2023-04-01T02:15:41.117Z,6.43
2023-04-01T02:16:13.037Z,9.01
2023-04-01T02:16:35.644Z,6.11
2023-04-01T02:16:58.256Z,8.69
2023-04-01T02:17:32.964Z,9.33
2023-04-01T02:18:05.111Z,7.88
2023-04-01T02:18:37.313Z,4.98
2023-04-01T02:19:09.077Z,5.47
2023-04-01T02:19:41.002Z,6.11
2023-04-01T02:20:12.968Z,5.47
2023-04-01T02:20:35.954Z,6.43
2023-04-01T02:20:58.467Z,5.47
2023-04-01T02:21:33.092Z,5.79
2023-04-01T02:22:04.954Z,6.11
2023-04-01T02:22:37.002Z,6.43
2023-04-01T02:23:09.259Z,5.79
2023-04-01T02:23:41.514Z,7.88
2023-04-01T02:24:13.015Z,7.24
2023-04-01T02:24:36.001Z,6.43
2023-04-01T02:24:58.382Z,6.11
2023-04-01T02:25:33.195Z,7.88
2023-04-01T02:26:05.058Z,6.43
2023-04-01T02:26:36.879Z,4.02
2023-04-01T02:27:08.952Z,4.66
2023-04-01T02:27:41.318Z,6.43
2023-04-01T02:28:12.950Z,7.24
2023-04-01T02:28:35.825Z,7.24
2023-04-01T02:28:58.654Z,6.11
2023-04-01T02:29:33.167Z,5.79
2023-04-01T02:30:05.818Z,7.88
2023-04-01T02:30:36.991Z,7.24
2023-04-01T02:31:09.114Z,7.88
2023-04-01T02:31:40.977Z,8.69
2023-04-01T02:32:13.033Z,7.24
2023-04-01T02:32:36.217Z,9.01
2023-04-01T02:32:59.363Z,6.43
2023-04-01T02:33:33.100Z,4.98
2023-04-01T02:34:05.020Z,4.98
2023-04-01T02:34:36.958Z,6.11
2023-04-01T02:35:08.909Z,5.47
2023-04-01T02:35:40.964Z,4.98
2023-04-01T02:36:13.131Z,7.24
2023-04-01T02:36:37.058Z,7.24
2023-04-01T02:37:00.525Z,9.33
2023-04-01T02:37:36.761Z,8.20
2023-04-01T02:38:04.953Z,7.24
2023-04-01T02:38:37.054Z,7.88
2023-04-01T02:39:08.913Z,7.56
2023-04-01T02:39:41.371Z,4.34
2023-04-01T02:40:13.079Z,9.33
2023-04-01T02:40:37.249Z,7.56
2023-04-01T02:40:58.079Z,8.69
2023-04-01T02:41:33.043Z,5.79
2023-04-01T02:42:05.499Z,5.47
2023-04-01T02:42:37.068Z,5.47
2023-04-01T02:43:08.989Z,7.24
2023-04-01T02:43:41.141Z,6.43
2023-04-01T02:44:13.291Z,9.33
2023-04-01T02:44:36.481Z,5.79
2023-04-01T02:45:01.170Z,4.66
2023-04-01T02:45:33.288Z,4.66
2023-04-01T02:46:05.093Z,4.34
2023-04-01T02:46:36.938Z,4.66
2023-04-01T02:47:09.086Z,4.34
2023-04-01T02:47:41.141Z,7.56
2023-04-01T02:48:13.041Z,10.78
2023-04-01T02:48:36.286Z,7.24
2023-04-01T02:48:58.760Z,6.11
2023-04-01T02:49:33.273Z,6.43
2023-04-01T02:50:05.049Z,7.24
2023-04-01T02:50:37.161Z,6.92
2023-04-01T02:51:09.116Z,5.79
2023-04-01T02:51:41.180Z,6.11
2023-04-01T02:52:12.897Z,5.47
2023-04-01T02:52:36.374Z,6.11
2023-04-01T02:52:58.640Z,5.47
2023-04-01T02:53:33.178Z,12.23
2023-04-01T02:54:05.154Z,5.79
2023-04-01T02:54:37.098Z,3.54
2023-04-01T02:55:08.944Z,6.11
2023-04-01T02:55:41.421Z,3.54
2023-04-01T02:56:12.939Z,3.54
2023-04-01T02:56:35.620Z,7.88
2023-04-01T02:56:58.026Z,5.47
2023-04-01T02:57:33.455Z,7.24
2023-04-01T02:58:05.308Z,8.69
2023-04-01T02:58:36.938Z,4.34
2023-04-01T02:59:09.053Z,7.24
2023-04-01T02:59:41.114Z,4.34
2023-04-01T03:00:21.755Z,4.66
2023-04-01T03:00:35.805Z,4.34
2023-04-01T03:00:59.732Z,4.66
2023-04-01T03:01:33.274Z,2.89
2023-04-01T03:02:00.971Z,4.02
2023-04-01T03:02:40.119Z,1.77
2023-04-01T03:03:10.017Z,2.09
2023-04-01T03:03:41.063Z,3.54
2023-04-01T03:04:20.189Z,4.98
2023-04-01T03:04:42.389Z,4.34
2023-04-01T03:05:17.320Z,2.89
2023-04-01T03:05:41.164Z,5.79
2023-04-01T03:06:04.353Z,7.88
2023-04-01T03:06:36.028Z,6.92
2023-04-01T03:07:09.043Z,4.02
2023-04-01T03:07:41.104Z,5.79
2023-04-01T03:08:13.084Z,5.79
2023-04-01T03:08:35.863Z,4.98
2023-04-01T03:09:01.219Z,5.47
2023-04-01T03:09:33.340Z,4.34
2023-04-01T03:10:05.666Z,4.98
2023-04-01T03:10:37.238Z,6.43
2023-04-01T03:11:09.168Z,4.66
2023-04-01T03:11:41.088Z,6.11
2023-04-01T03:12:12.965Z,3.54
2023-04-01T03:12:35.962Z,3.54
2023-04-01T03:12:58.243Z,4.02
2023-04-01T03:13:33.160Z,4.02
2023-04-01T03:14:05.840Z,2.89
2023-04-01T03:14:37.265Z,4.98
2023-04-01T03:15:11.025Z,4.34
2023-04-01T03:15:41.117Z,4.98
2023-04-01T03:16:13.127Z,6.11
2023-04-01T03:16:35.781Z,4.66
2023-04-01T03:16:58.603Z,4.66
2023-04-01T03:17:32.896Z,3.21
2023-04-01T03:18:06.716Z,4.02
2023-04-01T03:18:36.958Z,2.89
2023-04-01T03:19:09.358Z,1.44
2023-04-01T03:19:40.973Z,4.98
2023-04-01T03:20:13.037Z,4.02
2023-04-01T03:20:35.915Z,4.66
2023-04-01T03:20:58.409Z,2.89
2023-04-01T03:21:33.226Z,4.02
2023-04-01T03:22:07.473Z,2.09
2023-04-01T03:22:37.022Z,3.54
2023-04-01T03:23:09.028Z,4.98
2023-04-01T03:23:41.069Z,4.98
2023-04-01T03:24:12.880Z,4.66
2023-04-01T03:24:35.531Z,4.02
2023-04-01T03:24:57.885Z,4.66
2023-04-01T03:25:33.312Z,6.11
2023-04-01T03:26:04.931Z,5.47
2023-04-01T03:26:37.009Z,4.98
2023-04-01T03:27:08.963Z,3.54
2023-04-01T03:27:41.117Z,7.88
2023-04-01T03:28:12.874Z,5.47
2023-04-01T03:28:35.841Z,5.47
2023-04-01T03:28:58.076Z,4.66
2023-04-01T03:29:33.039Z,6.92
2023-04-01T03:30:05.202Z,2.89
2023-04-01T03:30:37.015Z,6.11
2023-04-01T03:31:09.016Z,7.24
2023-04-01T03:31:41.193Z,3.54
2023-04-01T03:32:13.011Z,3.54
2023-04-01T03:32:36.811Z,5.47
2023-04-01T03:32:58.857Z,4.66
2023-04-01T03:33:33.090Z,4.66
2023-04-01T03:34:05.097Z,4.98
2023-04-01T03:34:36.898Z,7.24
2023-04-01T03:35:09.469Z,6.43
2023-04-01T03:35:40.960Z,8.20
2023-04-01T03:36:13.027Z,8.69
2023-04-01T03:36:36.715Z,8.20
2023-04-01T03:37:17.629Z,4.34
2023-04-01T03:37:40.060Z,4.66
2023-04-01T03:38:02.534Z,7.56
2023-04-01T03:38:37.014Z,7.56
2023-04-01T03:39:10.240Z,5.47
2023-04-01T03:39:42.528Z,6.11
2023-04-01T03:40:13.474Z,8.69
2023-04-01T03:40:36.108Z,6.43
2023-04-01T03:40:58.607Z,7.88
2023-04-01T03:41:33.105Z,4.66
2023-04-01T03:42:05.226Z,4.98
2023-04-01T03:42:37.612Z,7.88
2023-04-01T03:43:11.284Z,4.02
2023-04-01T03:43:41.331Z,4.02
2023-04-01T03:44:13.958Z,4.66
2023-04-01T03:44:36.348Z,5.47
2023-04-01T03:44:58.720Z,4.98
2023-04-01T03:45:33.700Z,4.98
2023-04-01T03:46:05.998Z,5.79
2023-04-01T03:46:37.057Z,4.66
2023-04-01T03:47:11.569Z,3.21
2023-04-01T03:47:40.979Z,6.11
2023-04-01T03:48:13.230Z,5.79
2023-04-01T03:48:35.922Z,5.47
2023-04-01T03:48:58.198Z,4.02
2023-04-01T03:49:33.449Z,4.98
2023-04-01T03:50:05.953Z,7.88
2023-04-01T03:50:37.410Z,6.92
2023-04-01T03:51:08.982Z,6.11
2023-04-01T03:51:41.055Z,5.47
2023-04-01T03:52:13.206Z,5.47
2023-04-01T03:52:35.827Z,7.24
2023-04-01T03:52:58.545Z,6.43
2023-04-01T03:53:33.509Z,5.47
2023-04-01T03:54:06.117Z,2.57
2023-04-01T03:54:37.857Z,6.11
2023-04-01T03:55:09.332Z,8.20
2023-04-01T03:55:41.470Z,9.33
2023-04-01T03:56:14.380Z,6.43
2023-04-01T03:56:37.110Z,7.24
2023-04-01T03:56:59.506Z,4.66
2023-04-01T03:57:33.315Z,4.34
2023-04-01T03:58:05.416Z,2.89
2023-04-01T03:58:39.223Z,4.02
2023-04-01T03:59:09.278Z,3.21
2023-04-01T03:59:41.452Z,5.47
2023-04-01T04:00:14.742Z,6.43
2023-04-01T04:00:36.268Z,5.47
2023-04-01T04:00:58.267Z,7.56
2023-04-01T04:01:33.447Z,3.54
2023-04-01T04:02:07.596Z,7.24
2023-04-01T04:02:37.761Z,8.69
2023-04-01T04:03:09.813Z,6.43
2023-04-01T04:03:41.347Z,4.66
2023-04-01T04:04:14.892Z,7.24
2023-04-01T04:04:41.883Z,7.56
2023-04-01T04:04:59.503Z,6.43
2023-04-01T04:05:34.289Z,8.69
2023-04-01T04:06:05.689Z,9.33
2023-04-01T04:06:36.800Z,8.69
2023-04-01T04:07:09.516Z,6.11
2023-04-01T04:07:42.160Z,6.43
2023-04-01T04:08:14.531Z,4.98
2023-04-01T04:08:36.025Z,6.11
2023-04-01T04:08:58.329Z,5.79
2023-04-01T04:09:33.339Z,6.11
2023-04-01T04:10:05.890Z,5.79
2023-04-01T04:10:36.924Z,6.43
2023-04-01T04:11:09.014Z,8.20
2023-04-01T04:11:41.112Z,5.79
2023-04-01T04:12:14.892Z,4.66
2023-04-01T04:12:36.119Z,4.66
2023-04-01T04:12:58.668Z,7.88
2023-04-01T04:13:33.384Z,7.24
2023-04-01T04:14:05.049Z,6.43
2023-04-01T04:14:37.730Z,7.24
2023-04-01T04:15:09.389Z,5.47
2023-04-01T04:15:41.819Z,7.88
2023-04-01T04:16:15.746Z,7.24
2023-04-01T04:16:36.320Z,5.79
2023-04-01T04:16:59.580Z,2.09
2023-04-01T04:17:33.103Z,4.66
2023-04-01T04:18:05.767Z,4.98
2023-04-01T04:18:37.758Z,6.92
2023-04-01T04:19:09.373Z,3.54
2023-04-01T04:19:41.059Z,7.24
2023-04-01T04:20:13.677Z,7.56
2023-04-01T04:20:36.259Z,4.02
2023-04-01T04:20:59.869Z,4.98
2023-04-01T04:21:34.017Z,4.66
2023-04-01T04:22:05.687Z,4.34
2023-04-01T04:22:37.014Z,7.24
2023-04-01T04:23:09.884Z,6.11
2023-04-01T04:23:42.446Z,5.79
2023-04-01T04:24:13.090Z,6.92
2023-04-01T04:24:35.555Z,4.98
2023-04-01T04:24:58.149Z,7.24
2023-04-01T04:25:34.277Z,6.43
2023-04-01T04:26:06.145Z,6.11
2023-04-01T04:26:36.983Z,6.11
2023-04-01T04:27:09.040Z,8.20
2023-04-01T04:27:41.669Z,8.69
2023-04-01T04:28:13.374Z,6.11
2023-04-01T04:28:36.072Z,6.11
2023-04-01T04:28:59.017Z,4.66
2023-04-01T04:29:33.237Z,4.66
2023-04-01T04:30:05.485Z,5.47
2023-04-01T04:30:36.974Z,4.02
2023-04-01T04:31:09.070Z,7.24
2023-04-01T04:31:41.192Z,6.11
2023-04-01T04:32:12.947Z,4.02
2023-04-01T04:32:35.826Z,4.98
2023-04-01T04:32:59.314Z,4.98
2023-04-01T04:33:33.564Z,6.92
2023-04-01T04:34:05.507Z,4.66
2023-04-01T04:34:37.022Z,4.02
2023-04-01T04:35:08.986Z,4.98
2023-04-01T04:35:41.258Z,6.11
2023-04-01T04:36:13.205Z,5.47
2023-04-01T04:36:36.222Z,4.02
2023-04-01T04:36:59.117Z,6.43
2023-04-01T04:37:35.540Z,4.02
2023-04-01T04:38:05.758Z,4.02
2023-04-01T04:38:37.596Z,3.54
2023-04-01T04:39:09.094Z,6.11
2023-04-01T04:39:41.070Z,4.98
2023-04-01T04:40:13.168Z,6.43
2023-04-01T04:40:35.856Z,5.47
2023-04-01T04:40:58.233Z,5.79
2023-04-01T04:41:34.153Z,4.34
2023-04-01T04:42:05.107Z,5.79
2023-04-01T04:42:37.042Z,7.24
2023-04-01T04:43:09.081Z,6.11
2023-04-01T04:43:41.158Z,5.47
2023-04-01T04:44:13.197Z,7.24
2023-04-01T04:44:35.970Z,5.79
2023-04-01T04:44:58.663Z,5.47
2023-04-01T04:45:33.788Z,5.79
2023-04-01T04:46:05.761Z,5.79
2023-04-01T04:46:37.631Z,7.88
2023-04-01T04:47:11.833Z,6.92
2023-04-01T04:47:42.650Z,8.69
2023-04-01T04:48:13.167Z,9.33
2023-04-01T04:48:35.550Z,4.98
2023-04-01T04:48:58.840Z,4.66
2023-04-01T04:49:33.314Z,11.10
2023-04-01T04:50:05.867Z,4.98
2023-04-01T04:50:36.930Z,5.47
2023-04-01T04:51:09.245Z,2.89
2023-04-01T04:51:40.905Z,8.20
2023-04-01T04:52:14.506Z,6.43
2023-04-01T04:52:37.176Z,8.20
2023-04-01T04:52:59.472Z,6.11
2023-04-01T04:53:33.219Z,8.20
2023-04-01T04:54:04.992Z,7.24
2023-04-01T04:54:38.304Z,9.33
2023-04-01T04:55:09.398Z,6.43
2023-04-01T04:55:42.038Z,7.56
2023-04-01T04:56:13.555Z,3.54
2023-04-01T04:56:36.072Z,5.79
2023-04-01T04:56:58.989Z,6.43
2023-04-01T04:57:33.723Z,8.69
2023-04-01T04:58:05.116Z,7.24
2023-04-01T04:58:39.647Z,5.79
2023-04-01T04:59:10.353Z,9.33
2023-04-01T04:59:41.404Z,5.47
2023-04-01T05:00:13.151Z,5.79
2023-04-01T05:00:35.943Z,7.88
2023-04-01T05:00:58.391Z,7.24
2023-04-01T05:01:35.416Z,5.47
2023-04-01T05:02:06.550Z,7.88
2023-04-01T05:02:37.817Z,7.24
2023-04-01T05:03:09.410Z,7.88
2023-04-01T05:03:41.923Z,3.54
2023-04-01T05:04:13.382Z,4.98
2023-04-01T05:04:35.556Z,4.02
2023-04-01T05:04:57.977Z,5.79
2023-04-01T05:05:33.828Z,4.02
2023-04-01T05:06:06.225Z,5.79
2023-04-01T05:06:37.079Z,5.79
2023-04-01T05:07:12.583Z,4.02
2023-04-01T05:07:41.114Z,2.89
2023-04-01T05:08:13.338Z,4.66
2023-04-01T05:08:36.351Z,4.34
2023-04-01T05:08:58.738Z,4.66
2023-04-01T05:09:33.394Z,4.66
2023-04-01T05:10:05.449Z,3.54
2023-04-01T05:10:37.878Z,3.54
2023-04-01T05:11:09.807Z,4.98
2023-04-01T05:11:40.957Z,5.47
2023-04-01T05:12:13.070Z,4.02
2023-04-01T05:12:35.691Z,5.79
2023-04-01T05:12:59.274Z,4.66
2023-04-01T05:13:33.145Z,2.09
2023-04-01T05:14:05.055Z,2.89
2023-04-01T05:14:37.233Z,4.34
2023-04-01T05:15:12.229Z,5.47
2023-04-01T05:15:41.469Z,2.09
2023-04-01T05:16:13.660Z,.64
2023-04-01T05:16:36.585Z,2.89
2023-04-01T05:16:59.950Z,4.66
2023-04-01T05:17:33.486Z,4.98
2023-04-01T05:18:05.093Z,3.54
2023-04-01T05:18:37.219Z,1.77
2023-04-01T05:19:09.203Z,1.12
2023-04-01T05:19:41.102Z,4.34
2023-04-01T05:20:13.301Z,1.77
2023-04-01T05:20:36.320Z,4.02
2023-04-01T05:20:58.419Z,4.02
2023-04-01T05:21:33.473Z,4.34
2023-04-01T05:22:05.158Z,1.44
2023-04-01T05:22:37.208Z,1.12
2023-04-01T05:23:10.103Z,1.44
2023-04-01T05:23:41.631Z,2.89
2023-04-01T05:24:14.365Z,4.02
2023-04-01T05:24:37.280Z,3.21
2023-04-01T05:24:59.980Z,2.57
2023-04-01T05:25:34.506Z,3.21
2023-04-01T05:26:05.181Z,2.09
2023-04-01T05:26:37.252Z,3.21
2023-04-01T05:27:09.445Z,2.09
2023-04-01T05:27:41.620Z,2.09
2023-04-01T05:28:14.329Z,2.89
2023-04-01T05:28:37.000Z,1.44
2023-04-01T05:28:59.311Z,2.57
2023-04-01T05:29:33.011Z,3.21
2023-04-01T05:30:05.524Z,1.44
2023-04-01T05:30:37.252Z,3.21
2023-04-01T05:31:09.240Z,1.44
2023-04-01T05:31:41.005Z,.32
2023-04-01T05:32:13.213Z,1.77
2023-04-01T05:32:36.052Z,1.77
2023-04-01T05:32:58.343Z,2.09
2023-04-01T05:33:33.936Z,2.89
2023-04-01T05:34:04.930Z,1.44
2023-04-01T05:34:37.361Z,.32
2023-04-01T05:35:10.207Z,.64
2023-04-01T05:35:41.705Z,.32
2023-04-01T05:36:13.054Z,1.44
2023-04-01T05:36:35.959Z,1.12
2023-04-01T05:36:58.732Z,1.77
2023-04-01T05:37:33.219Z,2.09
2023-04-01T05:38:05.238Z,1.77
2023-04-01T05:38:36.906Z,1.77
2023-04-01T05:39:11.933Z,1.12
2023-04-01T05:39:41.084Z,2.09
2023-04-01T05:40:13.162Z,3.54
2023-04-01T05:40:35.817Z,3.21
2023-04-01T05:40:58.117Z,3.54
2023-04-01T05:41:33.392Z,1.44
2023-04-01T05:42:05.332Z,0
2023-04-01T05:42:38.433Z,1.77
2023-04-01T05:43:09.233Z,1.77
2023-04-01T05:43:41.336Z,1.44
2023-04-01T05:44:14.163Z,.32
2023-04-01T05:44:36.941Z,.32
2023-04-01T05:44:59.385Z,2.89
2023-04-01T05:45:33.598Z,1.77
2023-04-01T05:46:05.632Z,3.21
2023-04-01T05:46:37.068Z,2.57
2023-04-01T05:47:09.342Z,3.21
2023-04-01T05:47:41.811Z,2.89
2023-04-01T05:48:14.711Z,2.89
2023-04-01T05:48:35.743Z,1.77
2023-04-01T05:48:58.439Z,1.77
2023-04-01T05:49:33.499Z,1.44
2023-04-01T05:50:05.883Z,2.09
2023-04-01T05:50:37.289Z,4.02
2023-04-01T05:51:08.975Z,4.02
2023-04-01T05:51:41.516Z,4.66
2023-04-01T05:52:13.033Z,1.77
2023-04-01T05:52:35.733Z,.64
2023-04-01T05:52:58.410Z,7.24
2023-04-01T05:53:33.446Z,4.66
2023-04-01T05:54:05.667Z,3.54
2023-04-01T05:54:37.765Z,2.09
2023-04-01T05:55:09.981Z,2.89
2023-04-01T05:55:41.568Z,3.54
2023-04-01T05:56:14.036Z,3.54
2023-04-01T05:56:36.670Z,4.02
2023-04-01T05:56:59.347Z,3.21
2023-04-01T05:57:33.089Z,2.89
2023-04-01T05:58:05.039Z,4.02
2023-04-01T05:58:39.758Z,2.09
2023-04-01T05:59:10.161Z,1.77
2023-04-01T05:59:44.096Z,1.44
2023-04-01T06:00:08.008Z,1.44
2023-04-01T06:00:39.621Z,2.57
2023-04-01T06:01:17.466Z,4.02
2023-04-01T06:01:40.298Z,1.77
2023-04-01T06:02:02.928Z,2.89
2023-04-01T06:02:37.428Z,2.89
2023-04-01T06:03:09.429Z,2.89
2023-04-01T06:03:38.517Z,1.12
2023-04-01T06:04:13.709Z,1.77
2023-04-01T06:04:36.193Z,1.77
2023-04-01T06:04:58.702Z,2.57
2023-04-01T06:05:33.389Z,1.44
2023-04-01T06:06:05.366Z,1.44
2023-04-01T06:06:37.475Z,2.09
2023-04-01T06:07:13.434Z,.32
2023-04-01T06:07:35.944Z,1.44
2023-04-01T06:08:13.238Z,.64
2023-04-01T06:08:36.445Z,1.77
2023-04-01T06:08:59.028Z,1.12
2023-04-01T06:09:33.757Z,1.44
2023-04-01T06:10:05.075Z,0
2023-04-01T06:10:37.091Z,2.09
2023-04-01T06:11:09.409Z,1.77
2023-04-01T06:11:41.030Z,1.44
2023-04-01T06:12:13.110Z,.64
2023-04-01T06:12:36.740Z,1.12
2023-04-01T06:12:58.691Z,1.77
2023-04-01T06:13:34.225Z,2.09
2023-04-01T06:14:05.024Z,1.77
2023-04-01T06:14:37.245Z,1.44
2023-04-01T06:15:13.581Z,2.09
2023-04-01T06:15:40.972Z,1.77
2023-04-01T06:16:13.269Z,2.57
2023-04-01T06:16:35.784Z,1.44
2023-04-01T06:16:58.498Z,1.44
2023-04-01T06:17:35.165Z,1.44
2023-04-01T06:18:05.042Z,1.12
2023-04-01T06:18:37.242Z,1.77
2023-04-01T06:19:08.996Z,1.77
2023-04-01T06:19:40.878Z,1.44
2023-04-01T06:20:13.279Z,1.12
2023-04-01T06:20:36.205Z,.64
2023-04-01T06:20:58.680Z,.64
2023-04-01T06:21:35.415Z,1.12
2023-04-01T06:22:05.074Z,0
2023-04-01T06:22:37.012Z,2.57
2023-04-01T06:23:09.407Z,3.21
2023-04-01T06:23:42.125Z,1.77
2023-04-01T06:24:13.062Z,1.77
2023-04-01T06:24:36.035Z,1.77
2023-04-01T06:25:00.739Z,1.77
2023-04-01T06:25:36.510Z,2.89
2023-04-01T06:26:05.662Z,2.09
2023-04-01T06:26:37.012Z,1.44
2023-04-01T06:27:09.190Z,0
2023-04-01T06:27:41.604Z,1.12
2023-04-01T06:28:13.101Z,1.44
2023-04-01T06:28:37.186Z,3.54
2023-04-01T06:28:58.503Z,3.21
2023-04-01T06:29:32.974Z,2.09
2023-04-01T06:30:08.645Z,2.09
2023-04-01T06:30:38.152Z,1.12
2023-04-01T06:31:09.235Z,2.09
2023-04-01T06:31:41.299Z,1.12
2023-04-01T06:32:12.996Z,1.44
2023-04-01T06:32:37.766Z,2.09
2023-04-01T06:32:59.288Z,4.02
2023-04-01T06:33:34.052Z,4.98
2023-04-01T06:34:05.137Z,5.47
2023-04-01T06:34:43.128Z,6.43
2023-04-01T06:35:05.414Z,3.54
2023-04-01T06:35:41.079Z,3.54
2023-04-01T06:36:13.303Z,2.89
2023-04-01T06:36:38.712Z,2.89
2023-04-01T06:36:59.163Z,4.98
2023-04-01T06:37:38.539Z,4.34
2023-04-01T06:38:04.917Z,6.43
2023-04-01T06:38:39.092Z,4.02
2023-04-01T06:39:11.218Z,4.02
2023-04-01T06:39:41.626Z,2.09
2023-04-01T06:40:12.991Z,3.21
2023-04-01T06:40:35.711Z,2.57
2023-04-01T06:40:57.990Z,2.89
2023-04-01T06:41:33.176Z,3.54